createdAt,value
2022-09-26T00:00:13.179Z,13.90
2022-09-26T00:02:40.083Z,13.90
2022-09-26T00:05:07.794Z,13.90
2022-09-26T00:07:34.730Z,13.90
2022-09-26T00:10:01.629Z,13.90
2022-09-26T00:12:28.624Z,14.00
2022-09-26T00:14:55.502Z,14.00
2022-09-26T00:17:22.618Z,14.00
2022-09-26T00:19:49.460Z,14.00
2022-09-26T00:22:16.274Z,14.00
2022-09-26T00:24:43.238Z,14.00
2022-09-26T00:27:10.142Z,14.00
2022-09-26T00:29:37.003Z,14.00
2022-09-26T00:32:03.875Z,14.00
2022-09-26T00:34:30.713Z,14.10
2022-09-26T00:36:58.583Z,14.10
2022-09-26T00:39:25.420Z,14.10
2022-09-26T00:41:52.369Z,14.10
2022-09-26T00:44:38.561Z,14.00
2022-09-26T00:47:07.211Z,14.00
2022-09-26T00:49:38.675Z,14.00
2022-09-26T00:52:05.537Z,14.00
2022-09-26T00:54:34.437Z,14.00
2022-09-26T00:57:06.307Z,14.00
2022-09-26T00:59:38.637Z,14.00
2022-09-26T01:02:05.897Z,14.00
2022-09-26T01:04:34.491Z,14.00
2022-09-26T01:07:03.085Z,14.00
2022-09-26T01:09:30.742Z,14.00
2022-09-26T01:12:00.047Z,14.00
2022-09-26T01:14:27.297Z,14.00
2022-09-26T01:16:55.531Z,14.00
2022-09-26T01:19:40.975Z,14.00
2022-09-26T01:22:33.395Z,13.90
2022-09-26T01:25:02.993Z,13.90
2022-09-26T01:27:39.056Z,13.90
2022-09-26T01:30:10.627Z,13.90
2022-09-26T01:32:52.914Z,13.90
2022-09-26T01:35:19.782Z,13.90
2022-09-26T01:37:53.094Z,13.80
2022-09-26T01:40:32.104Z,13.80
2022-09-26T01:43:06.455Z,13.80
2022-09-26T01:45:39.753Z,13.80
2022-09-26T01:48:11.024Z,13.80
2022-09-26T01:50:52.652Z,13.70
2022-09-26T01:53:19.839Z,13.80
2022-09-26T01:55:48.785Z,13.70
2022-09-26T01:58:18.797Z,13.70
2022-09-26T02:00:47.112Z,13.70
2022-09-26T02:03:15.731Z,13.70
2022-09-26T02:05:55.477Z,13.70
2022-09-26T02:08:24.771Z,13.60
2022-09-26T02:10:53.766Z,13.60
2022-09-26T02:13:23.088Z,13.60
2022-09-26T02:15:53.329Z,13.60
2022-09-26T02:18:26.548Z,13.60
2022-09-26T02:20:58.139Z,13.50
2022-09-26T02:23:24.983Z,13.50
2022-09-26T02:25:51.861Z,13.50
2022-09-26T02:28:18.714Z,13.50
2022-09-26T02:30:46.598Z,13.50
2022-09-26T02:33:13.674Z,13.50
2022-09-26T02:35:55.777Z,13.50
2022-09-26T02:38:23.737Z,13.50
2022-09-26T02:41:00.430Z,13.50
2022-09-26T02:43:47.632Z,13.50
2022-09-26T02:46:29.540Z,13.40
2022-09-26T02:49:02.855Z,13.40
2022-09-26T02:51:50.048Z,13.40
2022-09-26T02:54:33.784Z,13.40
2022-09-26T02:57:09.558Z,13.40
2022-09-26T02:59:40.507Z,13.40
2022-09-26T03:02:14.647Z,13.40
2022-09-26T03:05:07.962Z,13.40
2022-09-26T03:07:53.636Z,13.40
2022-09-26T03:10:20.771Z,13.30
2022-09-26T03:12:48.951Z,13.30
2022-09-26T03:15:17.278Z,13.30
2022-09-26T03:17:50.061Z,13.30
2022-09-26T03:20:18.548Z,13.30
2022-09-26T03:22:45.441Z,13.30
2022-09-26T03:25:15.246Z,13.30
2022-09-26T03:27:44.227Z,13.30
2022-09-26T03:30:11.905Z,13.30
2022-09-26T03:32:38.799Z,13.30
2022-09-26T03:35:05.850Z,13.30
2022-09-26T03:37:35.301Z,13.40
2022-09-26T03:40:03.458Z,13.40
2022-09-26T03:42:33.147Z,13.30
2022-09-26T03:45:00.474Z,13.30
2022-09-26T03:47:27.571Z,13.40
2022-09-26T03:49:54.976Z,13.40
2022-09-26T03:52:22.530Z,13.40
2022-09-26T03:54:49.402Z,13.30
2022-09-26T03:57:16.732Z,13.30
2022-09-26T03:59:44.014Z,13.30
2022-09-26T04:02:11.067Z,13.30
2022-09-26T04:04:38.281Z,13.30
2022-09-26T04:07:05.484Z,13.30
2022-09-26T04:09:32.685Z,13.30
2022-09-26T04:11:59.550Z,13.30
2022-09-26T04:14:26.701Z,13.30
2022-09-26T04:16:53.573Z,13.30
2022-09-26T04:19:20.663Z,13.30
2022-09-26T04:21:47.539Z,13.30
2022-09-26T04:24:15.428Z,13.30
2022-09-26T04:26:43.330Z,13.30
2022-09-26T04:29:10.684Z,13.30
2022-09-26T04:31:38.076Z,13.30
2022-09-26T04:34:05.448Z,13.30
2022-09-26T04:36:32.918Z,13.30
2022-09-26T04:39:00.880Z,13.30
2022-09-26T04:41:29.470Z,13.30
2022-09-26T04:43:57.060Z,13.20
2022-09-26T04:46:30.160Z,13.30
2022-09-26T04:48:58.606Z,13.30
2022-09-26T04:51:26.059Z,13.20
2022-09-26T04:53:52.994Z,13.20
2022-09-26T04:56:20.870Z,13.20
2022-09-26T04:58:47.933Z,13.20
2022-09-26T05:01:16.447Z,13.20
2022-09-26T05:03:44.383Z,13.20
2022-09-26T05:06:11.748Z,13.20
2022-09-26T05:08:40.808Z,13.20
2022-09-26T05:11:08.513Z,13.20
2022-09-26T05:13:36.835Z,13.20
2022-09-26T05:16:04.134Z,13.20
2022-09-26T05:18:31.061Z,13.20
2022-09-26T05:20:57.988Z,13.20
2022-09-26T05:23:45.321Z,13.20
2022-09-26T05:26:20.132Z,13.20
2022-09-26T05:28:54.169Z,13.20
2022-09-26T05:31:22.865Z,13.20
2022-09-26T05:33:51.751Z,13.20
2022-09-26T05:36:19.661Z,13.20
2022-09-26T05:38:46.643Z,13.20
2022-09-26T05:41:14.252Z,13.10
2022-09-26T05:43:41.211Z,13.10
2022-09-26T05:46:09.332Z,13.10
2022-09-26T05:48:37.108Z,13.10
2022-09-26T05:51:04.268Z,13.20
2022-09-26T05:53:32.018Z,13.20
2022-09-26T05:55:58.939Z,13.20
2022-09-26T05:58:32.536Z,13.10
2022-09-26T06:01:03.218Z,13.10
2022-09-26T06:03:34.829Z,13.10
2022-09-26T06:06:02.470Z,13.10
2022-09-26T06:08:29.370Z,13.20
2022-09-26T06:11:03.628Z,13.20
2022-09-26T06:13:31.249Z,13.10
2022-09-26T06:16:01.197Z,13.10
2022-09-26T06:18:28.135Z,13.20
2022-09-26T06:20:55.007Z,13.20
2022-09-26T06:23:21.853Z,13.20
2022-09-26T06:25:48.689Z,13.20
2022-09-26T06:28:15.728Z,13.20
2022-09-26T06:30:42.607Z,13.20
2022-09-26T06:33:09.536Z,13.20
2022-09-26T06:35:36.363Z,13.20
2022-09-26T06:38:05.908Z,13.20
2022-09-26T06:40:33.950Z,13.20
2022-09-26T06:43:01.024Z,13.30
2022-09-26T06:45:28.155Z,13.30
2022-09-26T06:47:55.211Z,13.20
2022-09-26T06:50:22.786Z,13.30
2022-09-26T06:52:49.715Z,13.30
2022-09-26T06:55:16.625Z,13.30
2022-09-26T06:57:43.979Z,13.30
2022-09-26T07:00:12.068Z,13.30
2022-09-26T07:02:38.996Z,13.30
2022-09-26T07:05:06.156Z,13.40
2022-09-26T07:07:40.264Z,13.40
2022-09-26T07:10:07.406Z,13.40
2022-09-26T07:12:37.823Z,13.40
2022-09-26T07:15:04.973Z,13.40
2022-09-26T07:17:31.919Z,13.50
2022-09-26T07:19:58.864Z,13.50
2022-09-26T07:22:25.713Z,13.50
2022-09-26T07:24:52.511Z,13.50
2022-09-26T07:27:19.490Z,13.50
2022-09-26T07:29:47.465Z,13.60
2022-09-26T07:32:14.558Z,13.60
2022-09-26T07:34:42.988Z,13.60
2022-09-26T07:37:09.975Z,13.60
2022-09-26T07:39:36.878Z,13.60
2022-09-26T07:42:03.862Z,13.70
2022-09-26T07:45:17.108Z,13.70
2022-09-26T07:47:36.132Z,13.70
2022-09-26T07:50:13.427Z,13.70
2022-09-26T07:52:42.308Z,13.70
2022-09-26T07:55:10.431Z,13.70
2022-09-26T07:57:37.334Z,13.70
2022-09-26T08:00:09.297Z,13.80
2022-09-26T08:02:36.363Z,13.80
2022-09-26T08:05:03.902Z,13.80
2022-09-26T08:07:31.529Z,13.80
2022-09-26T08:09:59.304Z,13.90
2022-09-26T08:12:27.161Z,13.90
2022-09-26T08:14:54.220Z,13.90
2022-09-26T08:17:21.869Z,14.00
2022-09-26T08:19:48.923Z,14.00
2022-09-26T08:22:15.863Z,14.10
2022-09-26T08:24:49.981Z,14.10
2022-09-26T08:27:17.535Z,14.20
2022-09-26T08:29:48.620Z,14.20
2022-09-26T08:32:16.543Z,14.20
2022-09-26T08:34:43.478Z,14.20
2022-09-26T08:37:10.436Z,14.20
2022-09-26T08:39:37.367Z,14.20
2022-09-26T08:42:10.156Z,14.20
2022-09-26T08:44:36.998Z,14.30
2022-09-26T08:47:18.993Z,14.30
2022-09-26T08:49:50.438Z,14.40
2022-09-26T08:52:46.775Z,14.40
2022-09-26T08:55:16.179Z,14.40
2022-09-26T08:58:00.990Z,14.40
2022-09-26T09:00:31.397Z,14.30
2022-09-26T09:03:03.501Z,14.40
2022-09-26T09:05:33.140Z,14.40
2022-09-26T09:08:01.010Z,14.30
2022-09-26T09:10:40.023Z,14.40
2022-09-26T09:13:07.054Z,14.40
2022-09-26T09:15:43.825Z,14.40
2022-09-26T09:18:30.478Z,14.40
2022-09-26T09:21:01.831Z,14.40
2022-09-26T09:23:32.335Z,14.40
2022-09-26T09:29:03.600Z,14.40
2022-09-26T09:31:32.840Z,14.30
2022-09-26T09:34:02.441Z,14.40
2022-09-26T09:36:32.160Z,14.30
2022-09-26T09:39:09.910Z,14.40
2022-09-26T09:41:41.055Z,14.30
2022-09-26T09:44:34.017Z,14.30
2022-09-26T09:47:00.954Z,14.30
2022-09-26T09:49:27.890Z,14.30
2022-09-26T09:52:20.243Z,14.30
2022-09-26T09:54:53.295Z,14.30
2022-09-26T09:57:33.925Z,14.40
2022-09-26T10:00:10.319Z,14.30
2022-09-26T10:03:00.330Z,14.40
2022-09-26T10:05:39.311Z,14.40
2022-09-26T10:08:11.934Z,14.40
2022-09-26T10:10:57.579Z,14.40
2022-09-26T10:13:26.003Z,14.40
2022-09-26T10:16:14.725Z,14.50
2022-09-26T10:18:54.196Z,14.50
2022-09-26T10:21:21.754Z,14.50
2022-09-26T10:23:51.843Z,14.50
2022-09-26T10:26:31.090Z,14.50
2022-09-26T10:29:08.362Z,14.50
2022-09-26T10:31:41.988Z,14.50
2022-09-26T10:34:23.786Z,14.50
2022-09-26T10:36:50.631Z,14.50
2022-09-26T10:39:35.935Z,14.50
2022-09-26T10:42:04.336Z,14.50
2022-09-26T10:44:36.325Z,14.60
2022-09-26T10:47:10.146Z,14.60
2022-09-26T10:50:03.056Z,14.60
2022-09-26T10:52:33.243Z,14.60
2022-09-26T10:55:03.993Z,14.70
2022-09-26T10:57:36.845Z,14.70
2022-09-26T11:00:07.060Z,14.60
2022-09-26T11:02:35.236Z,14.70
2022-09-26T11:05:23.849Z,14.70
2022-09-26T11:07:52.525Z,14.60
2022-09-26T11:10:27.615Z,14.60
2022-09-26T11:12:56.335Z,14.60
2022-09-26T11:15:23.807Z,14.60
2022-09-26T11:17:55.680Z,14.60
2022-09-26T11:20:22.654Z,14.50
2022-09-26T11:22:58.509Z,14.60
2022-09-26T11:25:31.338Z,14.50
2022-09-26T11:28:08.576Z,14.50
2022-09-26T11:30:39.055Z,14.60
2022-09-26T11:33:09.630Z,14.60
2022-09-26T11:35:39.866Z,14.60
2022-09-26T11:38:18.927Z,14.50
2022-09-26T11:40:52.053Z,14.50
2022-09-26T11:43:26.440Z,14.40
2022-09-26T11:46:04.617Z,14.50
2022-09-26T11:48:50.299Z,14.50
2022-09-26T11:51:37.606Z,14.40
2022-09-26T11:54:19.703Z,14.50
2022-09-26T11:56:52.611Z,14.50
2022-09-26T11:59:38.060Z,14.50
2022-09-26T12:02:11.899Z,14.60
2022-09-26T12:04:59.496Z,14.50
2022-09-26T12:07:50.174Z,14.60
2022-09-26T12:10:25.255Z,14.50
2022-09-26T12:13:12.304Z,14.50
2022-09-26T12:15:43.629Z,14.50
2022-09-26T12:18:14.946Z,14.40
2022-09-26T12:21:06.481Z,14.50
2022-09-26T12:23:52.320Z,14.50
2022-09-26T12:26:22.992Z,14.50
2022-09-26T12:29:08.708Z,14.40
2022-09-26T12:31:50.947Z,14.50
2022-09-26T12:34:31.536Z,14.50
2022-09-26T12:37:02.024Z,14.50
2022-09-26T12:39:51.813Z,14.50
2022-09-26T12:42:26.721Z,14.40
2022-09-26T12:44:57.819Z,14.40
2022-09-26T12:47:49.068Z,14.40
2022-09-26T12:50:17.354Z,14.40
2022-09-26T12:53:02.820Z,14.50
2022-09-26T12:55:37.713Z,14.50
2022-09-26T12:58:22.636Z,14.50
2022-09-26T13:01:00.142Z,14.50
2022-09-26T13:03:47.220Z,14.60
2022-09-26T13:06:32.907Z,14.60
2022-09-26T13:09:02.509Z,14.60
2022-09-26T13:11:32.751Z,14.60
2022-09-26T13:14:18.621Z,14.70
2022-09-26T13:16:54.868Z,14.60
2022-09-26T13:19:36.172Z,14.60
2022-09-26T13:22:05.981Z,14.50
2022-09-26T13:24:55.871Z,14.50
2022-09-26T13:27:27.100Z,14.40
2022-09-26T13:29:58.750Z,14.50
2022-09-26T13:32:43.793Z,14.50
2022-09-26T13:35:19.572Z,14.50
2022-09-26T13:37:59.855Z,14.60
2022-09-26T13:40:34.177Z,14.60
2022-09-26T13:43:04.243Z,14.60
2022-09-26T13:45:50.720Z,14.60
2022-09-26T13:48:26.915Z,14.60
2022-09-26T13:51:00.708Z,14.60
2022-09-26T13:53:46.024Z,14.60
2022-09-26T13:56:30.779Z,14.70
2022-09-26T13:59:05.187Z,14.60
2022-09-26T14:01:33.822Z,14.70
2022-09-26T14:04:17.890Z,14.60
2022-09-26T14:07:02.761Z,14.60
2022-09-26T14:09:52.537Z,14.60
2022-09-26T14:12:21.427Z,14.60
2022-09-26T14:15:06.215Z,14.60
2022-09-26T14:17:42.161Z,14.60
2022-09-26T14:20:18.178Z,14.70
2022-09-26T14:22:51.682Z,14.60
2022-09-26T14:25:45.083Z,14.60
2022-09-26T14:28:21.505Z,14.60
2022-09-26T14:31:07.589Z,14.60
2022-09-26T14:33:34.599Z,14.60
2022-09-26T14:36:18.314Z,14.60
2022-09-26T14:38:49.478Z,14.60
2022-09-26T14:41:20.484Z,14.60
2022-09-26T14:43:48.508Z,14.60
2022-09-26T14:46:19.924Z,14.60
2022-09-26T14:48:47.081Z,14.50
2022-09-26T14:51:18.719Z,14.50
2022-09-26T14:53:48.653Z,14.60
2022-09-26T14:56:16.197Z,14.50
2022-09-26T14:58:43.027Z,14.50
2022-09-26T15:01:28.578Z,14.50
2022-09-26T15:04:03.224Z,14.40
2022-09-26T15:06:31.658Z,14.40
2022-09-26T15:09:01.937Z,14.40
2022-09-26T15:11:33.189Z,14.40
2022-09-26T15:14:02.075Z,14.30
2022-09-26T15:16:37.724Z,14.30
2022-09-26T15:19:09.896Z,14.40
2022-09-26T15:21:42.310Z,14.40
2022-09-26T15:24:24.388Z,14.40
2022-09-26T15:26:52.028Z,14.40
2022-09-26T15:29:18.863Z,14.40
2022-09-26T15:31:46.220Z,14.40
2022-09-26T15:34:16.598Z,14.50
2022-09-26T15:36:51.071Z,14.40
2022-09-26T15:39:33.121Z,14.50
2022-09-26T15:42:19.769Z,14.50
2022-09-26T15:45:09.987Z,14.50
2022-09-26T15:47:41.411Z,14.50
2022-09-26T15:50:12.622Z,14.50
2022-09-26T15:52:46.775Z,14.50
2022-09-26T15:55:33.883Z,14.50
2022-09-26T15:58:02.563Z,14.40
2022-09-26T16:00:34.331Z,14.40
2022-09-26T16:03:31.883Z,14.40
2022-09-26T16:06:02.002Z,14.40
2022-09-26T16:08:30.689Z,14.30
2022-09-26T16:10:59.346Z,14.40
2022-09-26T16:13:36.043Z,14.40
2022-09-26T16:16:04.357Z,14.50
2022-09-26T16:18:37.263Z,14.50
2022-09-26T16:21:24.312Z,14.50
2022-09-26T16:23:55.846Z,14.50
2022-09-26T16:26:30.321Z,14.50
2022-09-26T16:28:58.173Z,14.50
2022-09-26T16:31:27.979Z,14.50
2022-09-26T16:33:56.967Z,14.50
2022-09-26T16:36:27.332Z,14.50
2022-09-26T16:39:05.569Z,14.50
2022-09-26T16:42:00.474Z,14.50
2022-09-26T16:44:34.914Z,14.50
2022-09-26T16:47:04.949Z,14.50
2022-09-26T16:49:39.497Z,14.40
2022-09-26T16:52:34.863Z,14.40
2022-09-26T16:55:03.472Z,14.40
2022-09-26T16:57:35.509Z,14.40
2022-09-26T17:00:23.758Z,14.40
2022-09-26T17:02:50.750Z,14.40
2022-09-26T17:05:20.045Z,14.40
2022-09-26T17:07:48.485Z,14.40
2022-09-26T17:10:16.237Z,14.40
2022-09-26T17:12:43.383Z,14.50
2022-09-26T17:15:17.529Z,14.50
2022-09-26T17:17:44.391Z,14.50
2022-09-26T17:20:16.026Z,14.40
2022-09-26T17:22:42.951Z,14.40
2022-09-26T17:25:13.301Z,14.40
2022-09-26T17:27:40.778Z,14.30
2022-09-26T17:30:11.099Z,14.30
2022-09-26T17:32:39.224Z,14.30
2022-09-26T17:35:13.559Z,14.20
2022-09-26T17:37:40.395Z,14.20
2022-09-26T17:40:13.544Z,14.20
2022-09-26T17:42:40.512Z,14.20
2022-09-26T17:45:08.089Z,14.20
2022-09-26T17:47:34.945Z,14.20
2022-09-26T17:50:01.868Z,14.20
2022-09-26T17:52:31.308Z,14.10
2022-09-26T17:54:59.994Z,14.20
2022-09-26T17:57:30.305Z,14.20
2022-09-26T17:59:57.745Z,14.20
2022-09-26T18:02:30.797Z,14.20
2022-09-26T18:04:59.402Z,14.20
2022-09-26T18:07:31.508Z,14.20
2022-09-26T18:09:59.130Z,14.20
2022-09-26T18:12:26.681Z,14.20
2022-09-26T18:14:55.492Z,14.10
2022-09-26T18:17:22.421Z,14.20
2022-09-26T18:19:50.803Z,14.20
2022-09-26T18:22:18.960Z,14.10
2022-09-26T18:24:46.935Z,14.10
2022-09-26T18:27:14.898Z,14.00
2022-09-26T18:29:44.015Z,14.00
2022-09-26T18:32:21.797Z,14.00
2022-09-26T18:34:48.793Z,14.00
2022-09-26T18:37:15.784Z,13.90
2022-09-26T18:39:43.352Z,13.90
2022-09-26T18:42:12.424Z,13.90
2022-09-26T18:44:40.506Z,13.80
2022-09-26T18:47:13.429Z,13.80
2022-09-26T18:49:40.284Z,13.80
2022-09-26T18:52:12.022Z,13.80
2022-09-26T18:54:38.866Z,13.80
2022-09-26T18:57:27.377Z,13.80
2022-09-26T18:59:54.199Z,13.80
2022-09-26T19:02:22.360Z,13.80
2022-09-26T19:04:49.831Z,13.70
2022-09-26T19:07:21.017Z,13.70
2022-09-26T19:09:48.276Z,13.70
2022-09-26T19:12:16.532Z,13.70
2022-09-26T19:14:44.090Z,13.60
2022-09-26T19:17:11.466Z,13.70
2022-09-26T19:19:38.707Z,13.70
2022-09-26T19:22:10.520Z,13.60
2022-09-26T19:24:46.276Z,13.60
2022-09-26T19:27:13.324Z,13.60
2022-09-26T19:29:55.413Z,13.60
2022-09-26T19:32:24.198Z,13.60
2022-09-26T19:34:58.353Z,13.60
2022-09-26T19:37:25.398Z,13.60
2022-09-26T19:39:52.236Z,13.60
2022-09-26T19:42:19.231Z,13.60
2022-09-26T19:44:46.080Z,13.50
2022-09-26T19:47:21.567Z,13.60
2022-09-26T19:49:49.598Z,13.60
2022-09-26T19:52:17.228Z,13.60
2022-09-26T19:54:45.450Z,13.50
2022-09-26T19:57:22.274Z,13.50
2022-09-26T19:59:49.763Z,13.50
2022-09-26T20:02:21.327Z,13.50
2022-09-26T20:04:48.516Z,13.50
2022-09-26T20:07:19.338Z,13.50
2022-09-26T20:09:46.695Z,13.50
2022-09-26T20:12:14.005Z,13.50
2022-09-26T20:14:41.109Z,13.50
2022-09-26T20:17:20.032Z,13.50
2022-09-26T20:19:47.380Z,13.50
2022-09-26T20:22:19.898Z,13.60
2022-09-26T20:24:48.333Z,13.70
2022-09-26T20:27:18.662Z,13.80
2022-09-26T20:30:04.395Z,13.90
2022-09-26T20:32:31.291Z,13.90
2022-09-26T20:35:00.940Z,13.80
2022-09-26T20:37:29.111Z,13.80
2022-09-26T20:39:55.983Z,13.80
2022-09-26T20:42:28.138Z,13.80
2022-09-26T20:44:55.593Z,13.80
2022-09-26T20:47:23.033Z,13.80
2022-09-26T20:49:52.761Z,13.90
2022-09-26T20:52:21.340Z,13.90
2022-09-26T20:54:48.534Z,13.80
2022-09-26T20:57:19.789Z,13.80
2022-09-26T20:59:46.872Z,13.70
2022-09-26T21:02:23.346Z,13.80
2022-09-26T21:04:51.471Z,13.80
2022-09-26T21:07:18.636Z,13.80
2022-09-26T21:09:45.499Z,13.80
2022-09-26T21:12:12.824Z,13.70
2022-09-26T21:14:39.652Z,13.80
2022-09-26T21:17:17.257Z,13.70
2022-09-26T21:19:44.293Z,13.60
2022-09-26T21:22:14.577Z,13.60
2022-09-26T21:24:42.487Z,13.40
2022-09-26T21:27:10.384Z,13.30
2022-09-26T21:29:37.429Z,13.30
2022-09-26T21:32:06.735Z,13.30
2022-09-26T21:34:36.541Z,13.40
2022-09-26T21:37:03.968Z,13.50
2022-09-26T21:39:31.445Z,13.40
2022-09-26T21:42:01.386Z,13.50
2022-09-26T21:44:34.423Z,13.40
2022-09-26T21:47:01.262Z,13.40
2022-09-26T21:49:28.243Z,13.40
2022-09-26T21:51:57.535Z,13.40
2022-09-26T21:54:28.142Z,13.40
2022-09-26T21:56:57.740Z,13.40
2022-09-26T21:59:24.997Z,13.40
2022-09-26T22:01:51.950Z,13.40
2022-09-26T22:04:20.869Z,13.40
2022-09-26T22:06:47.884Z,13.30
2022-09-26T22:09:14.880Z,13.30
2022-09-26T22:11:41.770Z,13.40
2022-09-26T22:14:08.614Z,13.40
2022-09-26T22:16:35.531Z,13.40
2022-09-26T22:19:02.440Z,13.40
2022-09-26T22:21:29.263Z,13.40
2022-09-26T22:23:56.286Z,13.40
2022-09-26T22:26:23.540Z,13.40
2022-09-26T22:28:50.682Z,13.40
2022-09-26T22:31:17.933Z,13.40
2022-09-26T22:33:44.878Z,13.40
2022-09-26T22:36:12.281Z,13.30
2022-09-26T22:38:40.208Z,13.30
2022-09-26T22:41:07.571Z,13.30
2022-09-26T22:43:35.464Z,13.20
2022-09-26T22:46:02.337Z,13.20
2022-09-26T22:48:33.025Z,13.10
2022-09-26T22:51:00.572Z,13.10
2022-09-26T22:53:27.821Z,13.10
2022-09-26T22:55:55.739Z,13.00
2022-09-26T22:58:23.056Z,13.00
2022-09-26T23:00:50.071Z,12.90
2022-09-26T23:03:17.476Z,12.90
2022-09-26T23:05:46.568Z,12.90
2022-09-26T23:08:13.435Z,12.90
2022-09-26T23:10:47.710Z,12.90
2022-09-26T23:13:14.535Z,12.80
2022-09-26T23:15:41.380Z,12.90
2022-09-26T23:18:08.319Z,12.90
2022-09-26T23:20:37.729Z,12.80
2022-09-26T23:23:04.569Z,12.80
2022-09-26T23:25:31.406Z,12.70
2022-09-26T23:27:58.351Z,12.70
2022-09-26T23:30:25.246Z,12.70
2022-09-26T23:32:52.270Z,12.70
2022-09-26T23:35:19.139Z,12.70
2022-09-26T23:37:46.030Z,12.70
2022-09-26T23:40:13.465Z,12.60
2022-09-26T23:42:40.638Z,12.70
2022-09-26T23:45:07.802Z,12.60
2022-09-26T23:47:34.642Z,12.60
2022-09-26T23:50:01.584Z,12.70
2022-09-26T23:52:28.428Z,12.60
2022-09-26T23:54:55.283Z,12.60
2022-09-26T23:57:22.660Z,12.60
2022-09-26T23:59:49.652Z,12.60
